IBE4GB LEMD-LEBL
Flight info
| Callsign | IBE4GB |
|---|---|
| Flight time | N/A |
| Altitude | 30000 |
| Route | PINAR N870 PONEN T600 CASPE |
| Aircraft | A20N/M-SDE2E3FGHIRWXY/LB1 |
Departure
| Time | 2026-05-04 14:49 |
|---|---|
| Airport | Adolfo Suárez Madrid–Barajas Airport (LEMD) |
Arrival
| Time | N/A |
|---|---|
| Airport | Josep Tarradellas Barcelona-El Prat Airport (LEBL) |
| Time | Latitude | Longitude | Altitude | Speed | Heading |
|---|---|---|---|---|---|
| 2026-05-04 14:04 | 40.49079 | -3.58964 | 2022 ft | 0 kts | 271° |
| 2026-05-04 14:10 | 40.49079 | -3.58963 | 2049 ft | 0 kts | 271° |
| 2026-05-04 14:20 | 40.49079 | -3.58962 | 2049 ft | 0 kts | 271° |
| 2026-05-04 14:30 | 40.49079 | -3.58961 | 2022 ft | 0 kts | 271° |
| 2026-05-04 14:34 | 40.49082 | -3.58949 | 2022 ft | 1 kts | 197° |
| 2026-05-04 14:34 | 40.49094 | -3.58939 | 2036 ft | 2 kts | 258° |
| 2026-05-04 14:34 | 40.49096 | -3.58922 | 2033 ft | 0 kts | 258° |
| 2026-05-04 14:35 | 40.49098 | -3.58914 | 2030 ft | 0 kts | 258° |
| 2026-05-04 14:35 | 40.49097 | -3.58915 | 2028 ft | 0 kts | 258° |
| 2026-05-04 14:35 | 40.49098 | -3.58913 | 2028 ft | 2 kts | 258° |
| 2026-05-04 14:35 | 40.49100 | -3.58896 | 2031 ft | 2 kts | 251° |
| 2026-05-04 14:36 | 40.49102 | -3.58888 | 2029 ft | 2 kts | 246° |
| 2026-05-04 14:36 | 40.49106 | -3.58880 | 2030 ft | 0 kts | 184° |
| 2026-05-04 14:39 | 40.49105 | -3.58880 | 2022 ft | 1 kts | 184° |
| 2026-05-04 14:39 | 40.49099 | -3.58880 | 2022 ft | 0 kts | 184° |
| 2026-05-04 14:39 | 40.49097 | -3.58881 | 2030 ft | 2 kts | 184° |
| 2026-05-04 14:40 | 40.48997 | -3.58879 | 2022 ft | 11 kts | 177° |
| 2026-05-04 14:40 | 40.48916 | -3.58873 | 2022 ft | 13 kts | 177° |
| 2026-05-04 14:40 | 40.48818 | -3.58869 | 2022 ft | 15 kts | 179° |
| 2026-05-04 14:40 | 40.48707 | -3.58867 | 2028 ft | 17 kts | 180° |
| 2026-05-04 14:41 | 40.48687 | -3.58867 | 2022 ft | 3 kts | 180° |
| 2026-05-04 14:41 | 40.48655 | -3.58867 | 2022 ft | 6 kts | 180° |
| 2026-05-04 14:41 | 40.48579 | -3.58833 | 2026 ft | 5 kts | 78° |
| 2026-05-04 14:42 | 40.48594 | -3.58616 | 2030 ft | 17 kts | 91° |
| 2026-05-04 14:42 | 40.48604 | -3.58433 | 2015 ft | 22 kts | 92° |
| 2026-05-04 14:42 | 40.48596 | -3.58206 | 2005 ft | 23 kts | 92° |
| 2026-05-04 14:43 | 40.48598 | -3.58013 | 2001 ft | 11 kts | 89° |
| 2026-05-04 14:43 | 40.48607 | -3.57929 | 1997 ft | 0 kts | 46° |
| 2026-05-04 14:43 | 40.48651 | -3.57920 | 1998 ft | 6 kts | 345° |
| 2026-05-04 14:43 | 40.48759 | -3.57889 | 1996 ft | 19 kts | 54° |
| 2026-05-04 14:44 | 40.48765 | -3.57712 | 1992 ft | 24 kts | 89° |
| 2026-05-04 14:44 | 40.48766 | -3.57459 | 1989 ft | 30 kts | 90° |
| 2026-05-04 14:44 | 40.48764 | -3.57160 | 1982 ft | 35 kts | 91° |
| 2026-05-04 14:44 | 40.48763 | -3.56928 | 1978 ft | 25 kts | 90° |
| 2026-05-04 14:45 | 40.48766 | -3.56673 | 1976 ft | 30 kts | 89° |
| 2026-05-04 14:45 | 40.48769 | -3.56426 | 1966 ft | 16 kts | 89° |
| 2026-05-04 14:45 | 40.48770 | -3.56245 | 1961 ft | 23 kts | 95° |
| 2026-05-04 14:45 | 40.48811 | -3.56139 | 1959 ft | 9 kts | 6° |
| 2026-05-04 14:46 | 40.48891 | -3.56135 | 1958 ft | 14 kts | 1° |
| 2026-05-04 14:46 | 40.48999 | -3.56137 | 1958 ft | 17 kts | 359° |
| 2026-05-04 14:46 | 40.49129 | -3.56140 | 1958 ft | 20 kts | 359° |
| 2026-05-04 14:46 | 40.49247 | -3.56142 | 1959 ft | 11 kts | 2° |
| 2026-05-04 14:47 | 40.49300 | -3.56076 | 1962 ft | 10 kts | 82° |
| 2026-05-04 14:47 | 40.49300 | -3.55974 | 1959 ft | 13 kts | 89° |
| 2026-05-04 14:47 | 40.49291 | -3.55846 | 1960 ft | 15 kts | 110° |
| 2026-05-04 14:47 | 40.49245 | -3.55707 | 1961 ft | 18 kts | 111° |
| 2026-05-04 14:48 | 40.49193 | -3.55533 | 1959 ft | 23 kts | 117° |
| 2026-05-04 14:48 | 40.49070 | -3.55368 | 1954 ft | 34 kts | 142° |
| 2026-05-04 14:48 | 40.48679 | -3.54981 | 1948 ft | 108 kts | 142° |
| 2026-05-04 14:48 | 40.47890 | -3.54178 | 1939 ft | 175 kts | 144° |
| 2026-05-04 14:49 | 40.46930 | -3.53133 | 2667 ft | 182 kts | 146° |
| 2026-05-04 14:49 | 40.45943 | -3.52074 | 3657 ft | 182 kts | 147° |
| 2026-05-04 14:49 | 40.44864 | -3.51088 | 4392 ft | 199 kts | 148° |
| 2026-05-04 14:49 | 40.43671 | -3.50012 | 4947 ft | 217 kts | 147° |
| 2026-05-04 14:50 | 40.42396 | -3.48786 | 5420 ft | 237 kts | 145° |
| 2026-05-04 14:50 | 40.41022 | -3.47402 | 5905 ft | 258 kts | 146° |
| 2026-05-04 14:50 | 40.39597 | -3.45941 | 6738 ft | 260 kts | 145° |
| 2026-05-04 14:50 | 40.38163 | -3.44464 | 7588 ft | 264 kts | 146° |
| 2026-05-04 14:51 | 40.36712 | -3.42974 | 8466 ft | 265 kts | 147° |
| 2026-05-04 14:51 | 40.35160 | -3.41689 | 9366 ft | 264 kts | 155° |
| 2026-05-04 14:51 | 40.33537 | -3.40535 | 10184 ft | 267 kts | 155° |
| 2026-05-04 14:51 | 40.31947 | -3.39195 | 10809 ft | 283 kts | 141° |
| 2026-05-04 14:52 | 40.30731 | -3.37017 | 11123 ft | 314 kts | 116° |
| 2026-05-04 14:52 | 40.30221 | -3.34204 | 11394 ft | 342 kts | 95° |
| 2026-05-04 14:52 | 40.30218 | -3.30991 | 11765 ft | 362 kts | 88° |
| 2026-05-04 14:52 | 40.30633 | -3.27718 | 12501 ft | 369 kts | 72° |
| 2026-05-04 14:53 | 40.31738 | -3.24681 | 12881 ft | 371 kts | 54° |
| 2026-05-04 14:53 | 40.33377 | -3.22070 | 12998 ft | 373 kts | 47° |
| 2026-05-04 14:53 | 40.35072 | -3.19506 | 13003 ft | 371 kts | 47° |
| 2026-05-04 14:53 | 40.36729 | -3.16967 | 13003 ft | 372 kts | 48° |
| 2026-05-04 14:54 | 40.38473 | -3.14480 | 12999 ft | 369 kts | 37° |
| 2026-05-04 14:54 | 40.40668 | -3.12811 | 13005 ft | 364 kts | 16° |
| 2026-05-04 14:54 | 40.43123 | -3.12273 | 13003 ft | 355 kts | 354° |
| 2026-05-04 14:54 | 40.45545 | -3.12782 | 13008 ft | 353 kts | 344° |
| 2026-05-04 14:55 | 40.47928 | -3.13515 | 12988 ft | 352 kts | 343° |
| 2026-05-04 14:55 | 40.50324 | -3.14271 | 13343 ft | 356 kts | 343° |
| 2026-05-04 14:55 | 40.52740 | -3.15017 | 14229 ft | 355 kts | 343° |
| 2026-05-04 14:55 | 40.55160 | -3.15746 | 15011 ft | 359 kts | 343° |
| 2026-05-04 14:56 | 40.57605 | -3.16471 | 15784 ft | 362 kts | 343° |
| 2026-05-04 14:56 | 40.60065 | -3.17195 | 16563 ft | 364 kts | 343° |
| 2026-05-04 14:56 | 40.62551 | -3.17924 | 17310 ft | 368 kts | 343° |
| 2026-05-04 14:56 | 40.65056 | -3.18660 | 18050 ft | 370 kts | 343° |
| 2026-05-04 14:57 | 40.67583 | -3.19403 | 18711 ft | 373 kts | 343° |
| 2026-05-04 14:57 | 40.70127 | -3.20153 | 19346 ft | 376 kts | 343° |
| 2026-05-04 14:57 | 40.72691 | -3.20909 | 19966 ft | 379 kts | 343° |
| 2026-05-04 14:57 | 40.75279 | -3.21674 | 20579 ft | 383 kts | 343° |
| 2026-05-04 14:58 | 40.77919 | -3.22271 | 21190 ft | 390 kts | 353° |
| 2026-05-04 14:58 | 40.80656 | -3.21956 | 21801 ft | 401 kts | 9° |
| 2026-05-04 14:58 | 40.83289 | -3.20617 | 22377 ft | 412 kts | 26° |
| 2026-05-04 14:58 | 40.85610 | -3.18331 | 22962 ft | 422 kts | 42° |
| 2026-05-04 14:59 | 40.87435 | -3.15254 | 23559 ft | 430 kts | 58° |
| 2026-05-04 14:59 | 40.88628 | -3.11609 | 24013 ft | 437 kts | 72° |
| 2026-05-04 14:59 | 40.89853 | -3.03638 | 24829 ft | 449 kts | 79° |
| 2026-05-04 15:00 | 40.90473 | -2.99570 | 25197 ft | 454 kts | 77° |
| 2026-05-04 15:00 | 40.91175 | -2.95487 | 25643 ft | 457 kts | 76° |
| 2026-05-04 15:00 | 40.91935 | -2.91393 | 26072 ft | 461 kts | 76° |
| 2026-05-04 15:01 | 40.93528 | -2.83171 | 26882 ft | 468 kts | 75° |
| 2026-05-04 15:01 | 40.94344 | -2.78988 | 27270 ft | 472 kts | 75° |
| 2026-05-04 15:01 | 40.95166 | -2.74769 | 27646 ft | 476 kts | 75° |
| 2026-05-04 15:01 | 40.95991 | -2.70514 | 28028 ft | 479 kts | 76° |
| 2026-05-04 15:02 | 40.96819 | -2.66236 | 28379 ft | 482 kts | 76° |
| 2026-05-04 15:02 | 40.97653 | -2.61915 | 28711 ft | 486 kts | 76° |
| 2026-05-04 15:02 | 40.98488 | -2.57567 | 29052 ft | 489 kts | 76° |
| 2026-05-04 15:02 | 40.99327 | -2.53188 | 29388 ft | 492 kts | 76° |
| 2026-05-04 15:03 | 41.00169 | -2.48784 | 29729 ft | 495 kts | 76° |
| 2026-05-04 15:03 | 41.01016 | -2.44345 | 29931 ft | 498 kts | 77° |
| 2026-05-04 15:03 | 41.02707 | -2.35450 | 29953 ft | 498 kts | 77° |
| 2026-05-04 15:04 | 41.04391 | -2.26556 | 29940 ft | 499 kts | 77° |
| 2026-05-04 15:04 | 41.06075 | -2.17630 | 29942 ft | 499 kts | 77° |
| 2026-05-04 15:05 | 41.07748 | -2.08706 | 29942 ft | 499 kts | 77° |
| 2026-05-04 15:05 | 41.09414 | -1.99774 | 29943 ft | 499 kts | 77° |
| 2026-05-04 15:06 | 41.11074 | -1.90843 | 29929 ft | 499 kts | 78° |
| 2026-05-04 15:07 | 41.13556 | -1.77418 | 29927 ft | 498 kts | 78° |
| 2026-05-04 15:07 | 41.15196 | -1.68478 | 29924 ft | 499 kts | 78° |
| 2026-05-04 15:08 | 41.16829 | -1.59545 | 29926 ft | 498 kts | 78° |
| 2026-05-04 15:08 | 41.18456 | -1.50597 | 29909 ft | 498 kts | 79° |
| 2026-05-04 15:09 | 41.20079 | -1.41631 | 29928 ft | 500 kts | 79° |
| 2026-05-04 15:09 | 41.21695 | -1.32657 | 29926 ft | 499 kts | 79° |
| 2026-05-04 15:10 | 41.24095 | -1.19255 | 29928 ft | 499 kts | 79° |
| 2026-05-04 15:11 | 41.26507 | -1.05691 | 29917 ft | 502 kts | 80° |
| 2026-05-04 15:11 | 41.28103 | -0.96649 | 29906 ft | 500 kts | 80° |
| 2026-05-04 15:12 | 41.29675 | -0.87703 | 29913 ft | 501 kts | 80° |
| 2026-05-04 15:12 | 41.31254 | -0.78679 | 29912 ft | 500 kts | 80° |
| 2026-05-04 15:13 | 41.32823 | -0.69679 | 29910 ft | 498 kts | 81° |
| 2026-05-04 15:13 | 41.34375 | -0.60701 | 29909 ft | 498 kts | 82° |
| 2026-05-04 15:14 | 41.34972 | -0.53120 | 29911 ft | 486 kts | 96° |
| 2026-05-04 15:14 | 41.34217 | -0.44272 | 29908 ft | 483 kts | 104° |
| 2026-05-04 15:15 | 41.33225 | -0.35438 | 29912 ft | 482 kts | 104° |
| 2026-05-04 15:15 | 41.32234 | -0.26613 | 29905 ft | 482 kts | 104° |
| 2026-05-04 15:16 | 41.30731 | -0.13439 | 29891 ft | 482 kts | 104° |
| 2026-05-04 15:17 | 41.29206 | -0.00223 | 29886 ft | 482 kts | 104° |
| 2026-05-04 15:17 | 41.27651 | 0.13098 | 29822 ft | 484 kts | 104° |
| 2026-05-04 15:18 | 41.27302 | 0.17548 | 29450 ft | 485 kts | 96° |
| 2026-05-04 15:18 | 41.27508 | 0.21996 | 29259 ft | 480 kts | 85° |
| 2026-05-04 15:18 | 41.28232 | 0.26312 | 28753 ft | 478 kts | 77° |
| 2026-05-04 15:19 | 41.30094 | 0.34717 | 27657 ft | 469 kts | 77° |
| 2026-05-04 15:19 | 41.31005 | 0.38859 | 27096 ft | 465 kts | 77° |
| 2026-05-04 15:19 | 41.32803 | 0.47103 | 25893 ft | 460 kts | 77° |
| 2026-05-04 15:20 | 41.33688 | 0.51174 | 25365 ft | 456 kts | 77° |
| 2026-05-04 15:20 | 41.34563 | 0.55210 | 24879 ft | 452 kts | 77° |
| 2026-05-04 15:20 | 41.35426 | 0.59194 | 24569 ft | 443 kts | 77° |
| 2026-05-04 15:20 | 41.36273 | 0.63111 | 24071 ft | 439 kts | 77° |
| 2026-05-04 15:21 | 41.37112 | 0.67008 | 23583 ft | 436 kts | 77° |
| 2026-05-04 15:21 | 41.37944 | 0.70871 | 23094 ft | 432 kts | 77° |
| 2026-05-04 15:21 | 41.39580 | 0.78492 | 21943 ft | 425 kts | 77° |
| 2026-05-04 15:22 | 41.40388 | 0.82270 | 21404 ft | 422 kts | 77° |
| 2026-05-04 15:22 | 41.41187 | 0.86007 | 20907 ft | 417 kts | 77° |
| 2026-05-04 15:22 | 41.42755 | 0.93362 | 19950 ft | 409 kts | 77° |
| 2026-05-04 15:23 | 41.43527 | 0.96989 | 19474 ft | 405 kts | 77° |
| 2026-05-04 15:23 | 41.44290 | 1.00586 | 18982 ft | 402 kts | 77° |
| 2026-05-04 15:23 | 41.45045 | 1.04149 | 18555 ft | 397 kts | 77° |
| 2026-05-04 15:23 | 41.45792 | 1.07676 | 18092 ft | 393 kts | 77° |
| 2026-05-04 15:24 | 41.47259 | 1.14630 | 17095 ft | 386 kts | 77° |
| 2026-05-04 15:24 | 41.48694 | 1.21468 | 16102 ft | 380 kts | 77° |
| 2026-05-04 15:25 | 41.49403 | 1.24849 | 15640 ft | 377 kts | 77° |
| 2026-05-04 15:25 | 41.50106 | 1.28205 | 15160 ft | 374 kts | 77° |
| 2026-05-04 15:25 | 41.50803 | 1.31534 | 14713 ft | 371 kts | 77° |
| 2026-05-04 15:26 | 41.52177 | 1.38116 | 13801 ft | 365 kts | 76° |
| 2026-05-04 15:26 | 41.52846 | 1.41325 | 13322 ft | 362 kts | 76° |
| 2026-05-04 15:26 | 41.54179 | 1.47745 | 12387 ft | 356 kts | 77° |
| 2026-05-04 15:27 | 41.54626 | 1.50946 | 12119 ft | 343 kts | 87° |
| 2026-05-04 15:27 | 41.54730 | 1.57046 | 11842 ft | 317 kts | 93° |
| 2026-05-04 15:28 | 41.54777 | 1.62878 | 11125 ft | 312 kts | 93° |
| 2026-05-04 15:28 | 41.54798 | 1.65765 | 10744 ft | 310 kts | 93° |
| 2026-05-04 15:28 | 41.54836 | 1.71475 | 9991 ft | 307 kts | 93° |
| 2026-05-04 15:29 | 41.54854 | 1.74306 | 9660 ft | 303 kts | 93° |
| 2026-05-04 15:30 | 41.56363 | 1.84938 | 8103 ft | 301 kts | 43° |
| 2026-05-04 15:30 | 41.59682 | 1.91516 | 7932 ft | 294 kts | 93° |
| 2026-05-04 15:31 | 41.58318 | 1.96457 | 7939 ft | 283 kts | 124° |
| 2026-05-04 15:31 | 41.57324 | 1.98724 | 7941 ft | 283 kts | 124° |
| 2026-05-04 15:32 | 41.54344 | 2.05531 | 7943 ft | 284 kts | 124° |
| 2026-05-04 15:32 | 41.52436 | 2.10163 | 7939 ft | 288 kts | 114° |
| 2026-05-04 15:33 | 41.52095 | 2.15477 | 7942 ft | 294 kts | 90° |
| 2026-05-04 15:34 | 41.52241 | 2.23668 | 7940 ft | 293 kts | 104° |
| 2026-05-04 15:34 | 41.51495 | 2.26124 | 7938 ft | 282 kts | 130° |
| 2026-05-04 15:34 | 41.48332 | 2.28862 | 7942 ft | 273 kts | 162° |
| 2026-05-04 15:35 | 41.45707 | 2.32316 | 7789 ft | 274 kts | 111° |
| 2026-05-04 15:35 | 41.45544 | 2.34799 | 7709 ft | 269 kts | 83° |
| 2026-05-04 15:35 | 41.46208 | 2.37089 | 7510 ft | 265 kts | 60° |
| 2026-05-04 15:36 | 41.48205 | 2.41189 | 6899 ft | 261 kts | 60° |
| 2026-05-04 15:36 | 41.49100 | 2.43282 | 6607 ft | 259 kts | 64° |
| 2026-05-04 15:36 | 41.49915 | 2.45424 | 6303 ft | 258 kts | 66° |
| 2026-05-04 15:37 | 41.50669 | 2.47587 | 6089 ft | 255 kts | 71° |
| 2026-05-04 15:37 | 41.50889 | 2.49876 | 5873 ft | 247 kts | 102° |
| 2026-05-04 15:37 | 41.50256 | 2.51932 | 5578 ft | 239 kts | 132° |
| 2026-05-04 15:37 | 41.48956 | 2.53223 | 5250 ft | 232 kts | 164° |
| 2026-05-04 15:38 | 41.47390 | 2.53391 | 4900 ft | 227 kts | 194° |
| 2026-05-04 15:38 | 41.46024 | 2.52405 | 4544 ft | 226 kts | 226° |
| 2026-05-04 15:38 | 41.45288 | 2.50578 | 4202 ft | 228 kts | 257° |
| 2026-05-04 15:38 | 41.45150 | 2.48464 | 3871 ft | 230 kts | 268° |
| 2026-05-04 15:39 | 41.45144 | 2.46342 | 3604 ft | 228 kts | 264° |
| 2026-05-04 15:39 | 41.44873 | 2.44289 | 3345 ft | 224 kts | 250° |
| 2026-05-04 15:39 | 41.43378 | 2.40725 | 2995 ft | 222 kts | 231° |
| 2026-05-04 15:40 | 41.42376 | 2.39137 | 2990 ft | 225 kts | 227° |
| 2026-05-04 15:40 | 41.41325 | 2.37607 | 2994 ft | 223 kts | 226° |
| 2026-05-04 15:40 | 41.40271 | 2.36110 | 2996 ft | 222 kts | 226° |
| 2026-05-04 15:40 | 41.39206 | 2.34602 | 2998 ft | 222 kts | 226° |
| 2026-05-04 15:41 | 41.38157 | 2.33108 | 2992 ft | 222 kts | 226° |
| 2026-05-04 15:41 | 41.37104 | 2.31601 | 2992 ft | 223 kts | 226° |
| 2026-05-04 15:41 | 41.36083 | 2.30046 | 3009 ft | 224 kts | 232° |
| 2026-05-04 15:41 | 41.35297 | 2.28220 | 3019 ft | 232 kts | 243° |
| 2026-05-04 15:42 | 41.34606 | 2.26265 | 3016 ft | 233 kts | 244° |
| 2026-05-04 15:42 | 41.33972 | 2.24261 | 3006 ft | 237 kts | 246° |
| 2026-05-04 15:42 | 41.33296 | 2.22251 | 3013 ft | 237 kts | 244° |
| 2026-05-04 15:42 | 41.32628 | 2.20268 | 2979 ft | 229 kts | 244° |
| 2026-05-04 15:43 | 41.31996 | 2.18408 | 2976 ft | 214 kts | 244° |
| 2026-05-04 15:43 | 41.31375 | 2.16622 | 2688 ft | 211 kts | 244° |
| 2026-05-04 15:43 | 41.30701 | 2.14648 | 1390 ft | 251 kts | 247° |
| 2026-05-04 15:43 | 41.30147 | 2.12568 | 981 ft | 222 kts | 249° |
| 2026-05-04 15:44 | 41.29415 | 2.10869 | 328 ft | 207 kts | 242° |
| 2026-05-04 15:44 | 41.28881 | 2.09283 | 992 ft | 181 kts | 246° |
| 2026-05-04 15:44 | 41.28393 | 2.07775 | 1813 ft | 179 kts | 245° |
| 2026-05-04 15:44 | 41.27881 | 2.06261 | 2635 ft | 182 kts | 244° |
| 2026-05-04 15:45 | 41.27268 | 2.04758 | 3493 ft | 190 kts | 234° |
| 2026-05-04 15:45 | 41.26436 | 2.03329 | 4377 ft | 204 kts | 230° |
| 2026-05-04 15:45 | 41.25544 | 2.01854 | 4810 ft | 202 kts | 231° |
| 2026-05-04 15:45 | 41.24670 | 2.00399 | 4982 ft | 202 kts | 232° |
| 2026-05-04 15:46 | 41.23656 | 1.99132 | 4968 ft | 204 kts | 204° |
| 2026-05-04 15:46 | 41.22206 | 1.98953 | 5329 ft | 219 kts | 166° |
| 2026-05-04 15:46 | 41.20942 | 2.00033 | 6381 ft | 219 kts | 131° |
| 2026-05-04 15:46 | 41.20360 | 2.01880 | 7373 ft | 223 kts | 98° |
| 2026-05-04 15:47 | 41.20626 | 2.03937 | 8133 ft | 236 kts | 64° |
| 2026-05-04 15:47 | 41.21718 | 2.05593 | 8815 ft | 245 kts | 30° |
| 2026-05-04 15:47 | 41.23220 | 2.06663 | 9625 ft | 246 kts | 41° |
| 2026-05-04 15:47 | 41.24172 | 2.08579 | 10080 ft | 263 kts | 72° |
| 2026-05-04 15:48 | 41.24584 | 2.11043 | 9505 ft | 279 kts | 86° |
| 2026-05-04 15:48 | 41.25155 | 2.13473 | 9401 ft | 275 kts | 63° |
| 2026-05-04 15:48 | 41.27000 | 2.17769 | 8996 ft | 263 kts | 62° |
| 2026-05-04 15:49 | 41.27909 | 2.19879 | 8631 ft | 265 kts | 62° |
| 2026-05-04 15:49 | 41.28834 | 2.22034 | 8102 ft | 273 kts | 62° |
| 2026-05-04 15:49 | 41.29784 | 2.24278 | 7582 ft | 286 kts | 62° |
| 2026-05-04 15:49 | 41.30789 | 2.26634 | 7028 ft | 299 kts | 62° |
| 2026-05-04 15:50 | 41.31826 | 2.29080 | 6489 ft | 309 kts | 62° |
| 2026-05-04 15:50 | 41.32906 | 2.31605 | 5956 ft | 318 kts | 62° |
| 2026-05-04 15:50 | 41.34008 | 2.34196 | 5395 ft | 324 kts | 62° |
| 2026-05-04 15:50 | 41.35110 | 2.36789 | 5122 ft | 317 kts | 62° |
| 2026-05-04 15:51 | 41.36180 | 2.39318 | 4872 ft | 312 kts | 62° |
| 2026-05-04 15:51 | 41.37237 | 2.41857 | 4563 ft | 315 kts | 62° |
| 2026-05-04 15:51 | 41.38312 | 2.44385 | 4221 ft | 311 kts | 62° |
| 2026-05-04 15:51 | 41.39349 | 2.46852 | 3917 ft | 303 kts | 62° |
| 2026-05-04 15:52 | 41.40371 | 2.49287 | 3609 ft | 295 kts | 62° |
| 2026-05-04 15:52 | 41.41361 | 2.51646 | 3315 ft | 289 kts | 62° |
| 2026-05-04 15:52 | 41.42323 | 2.53922 | 3066 ft | 281 kts | 62° |
| 2026-05-04 15:52 | 41.43282 | 2.56113 | 2986 ft | 266 kts | 54° |
| 2026-05-04 15:53 | 41.44634 | 2.57647 | 2987 ft | 249 kts | 25° |
| 2026-05-04 15:53 | 41.46243 | 2.58152 | 2988 ft | 231 kts | 358° |
| 2026-05-04 15:53 | 41.47740 | 2.57752 | 2979 ft | 212 kts | 333° |
| 2026-05-04 15:53 | 41.48952 | 2.56649 | 2991 ft | 212 kts | 310° |
| 2026-05-04 15:54 | 41.49743 | 2.55046 | 2987 ft | 205 kts | 287° |
| 2026-05-04 15:54 | 41.50020 | 2.53204 | 2996 ft | 202 kts | 266° |
| 2026-05-04 15:54 | 41.49779 | 2.51394 | 2912 ft | 196 kts | 246° |
| 2026-05-04 15:54 | 41.49084 | 2.49849 | 2628 ft | 195 kts | 226° |
| 2026-05-04 15:55 | 41.48176 | 2.48526 | 2464 ft | 193 kts | 226° |
| 2026-05-04 15:55 | 41.47271 | 2.47173 | 2516 ft | 200 kts | 226° |
| 2026-05-04 15:55 | 41.46355 | 2.45796 | 2598 ft | 198 kts | 227° |
| 2026-05-04 15:55 | 41.45450 | 2.44416 | 2491 ft | 195 kts | 227° |
| 2026-05-04 15:56 | 41.44562 | 2.43057 | 2492 ft | 194 kts | 227° |
| 2026-05-04 15:56 | 41.43661 | 2.41685 | 2493 ft | 198 kts | 228° |
| 2026-05-04 15:56 | 41.42772 | 2.40328 | 2496 ft | 194 kts | 227° |
| 2026-05-04 15:56 | 41.41872 | 2.38957 | 2495 ft | 197 kts | 227° |
| 2026-05-04 15:57 | 41.40971 | 2.37589 | 2490 ft | 196 kts | 227° |
| 2026-05-04 15:57 | 41.40072 | 2.36222 | 2495 ft | 197 kts | 227° |
| 2026-05-04 15:57 | 41.39173 | 2.34851 | 2493 ft | 195 kts | 228° |
| 2026-05-04 15:57 | 41.38290 | 2.33479 | 2496 ft | 195 kts | 228° |
| 2026-05-04 15:58 | 41.37379 | 2.32121 | 2493 ft | 197 kts | 226° |
| 2026-05-04 15:58 | 41.36456 | 2.30804 | 2495 ft | 194 kts | 226° |
| 2026-05-04 15:58 | 41.35653 | 2.29337 | 2499 ft | 199 kts | 240° |
| 2026-05-04 15:58 | 41.35096 | 2.27650 | 2468 ft | 199 kts | 245° |
| 2026-05-04 15:59 | 41.34560 | 2.25969 | 2398 ft | 196 kts | 244° |
| 2026-05-04 15:59 | 41.34008 | 2.24308 | 2175 ft | 195 kts | 244° |
| 2026-05-04 15:59 | 41.33431 | 2.22591 | 2094 ft | 205 kts | 244° |
| 2026-05-04 15:59 | 41.32855 | 2.20906 | 2159 ft | 201 kts | 244° |
| 2026-05-04 16:00 | 41.32473 | 2.19790 | 2152 ft | 198 kts | 245° |
| 2026-05-04 16:00 | 41.32516 | 2.17698 | 2798 ft | 139 kts | 273° |
| 2026-05-04 16:00 | 41.32548 | 2.16459 | 2720 ft | 145 kts | 267° |
| 2026-05-04 16:00 | 41.32467 | 2.15567 | 2442 ft | 150 kts | 247° |
| 2026-05-04 16:01 | 41.32016 | 2.14435 | 2721 ft | 127 kts | 241° |
| 2026-05-04 16:01 | 41.31584 | 2.13172 | 2546 ft | 193 kts | 242° |
| 2026-05-04 16:01 | 41.30821 | 2.11538 | 1929 ft | 213 kts | 239° |
| 2026-05-04 16:01 | 41.30192 | 2.09712 | 1688 ft | 235 kts | 238° |
| 2026-05-04 16:02 | 41.29373 | 2.07582 | 214 ft | 287 kts | 249° |